Time;durP1;ratioP1;P1;durP2;ratioP2;P2;SDS_P1;SDS_P2;PMS_P1;PMS_P2;Temp;Humidity;BMP_temperature;BMP_pressure;BME280_temperature;BME280_humidity;BME280_pressure;Samples;Min_cycle;Max_cycle;Signal;HPM_P1;HPM_P2
2024/01/29 00:02:14;;;;;;;1.10;1.10;;;;;;;2.61;100.00;102242.50;5092551;28;20264;-76
2024/01/29 00:04:41;;;;;;;0.70;0.70;;;;;;;2.49;100.00;102225.41;5092580;28;20280;-76
2024/01/29 00:07:08;;;;;;;1.07;1.07;;;;;;;2.59;100.00;102246.63;5092508;28;20202;-76
2024/01/29 00:09:36;;;;;;;1.40;1.40;;;;;;;2.64;100.00;102248.75;5092139;28;20209;-76
2024/01/29 00:12:03;;;;;;;0.80;0.80;;;;;;;2.60;100.00;102256.09;5056893;28;20197;-76
2024/01/29 00:14:30;;;;;;;0.87;0.87;;;;;;;2.50;100.00;102234.84;5070118;28;20198;-76
2024/01/29 00:16:57;;;;;;;0.60;0.60;;;;;;;2.59;100.00;102260.31;5069366;28;20221;-75
2024/01/29 00:19:24;;;;;;;0.83;0.83;;;;;;;2.38;100.00;102223.63;5092478;28;20206;-75
2024/01/29 00:21:51;;;;;;;0.80;0.80;;;;;;;2.52;100.00;102257.13;5092440;28;20202;-76
2024/01/29 00:24:18;;;;;;;1.47;1.47;;;;;;;2.58;100.00;102262.75;5091985;28;20662;-76
2024/01/29 00:26:46;;;;;;;0.70;0.70;;;;;;;2.60;100.00;102272.38;5091920;28;20563;-76
2024/01/29 00:29:13;;;;;;;1.00;1.00;;;;;;;2.40;100.00;102239.09;5092170;28;20197;-76
2024/01/29 00:31:40;;;;;;;1.00;1.00;;;;;;;2.52;100.00;102257.13;5091658;28;20205;-75
2024/01/29 00:34:07;;;;;;;0.60;0.60;;;;;;;2.59;100.00;102264.53;5091962;28;20645;-75
2024/01/29 00:36:34;;;;;;;1.40;1.40;;;;;;;2.35;100.00;102225.94;5091797;28;20717;-76
2024/01/29 00:39:03;;;;;;;0.83;0.83;;;;;;;2.49;100.00;102257.78;5092130;28;20202;-75
2024/01/29 00:41:30;;;;;;;1.27;1.27;;;;;;;2.55;100.00;102262.50;5091740;28;20593;-75
2024/01/29 00:43:58;;;;;;;0.90;0.90;;;;;;;2.60;100.00;102266.34;5091711;28;20201;-76
2024/01/29 00:46:25;;;;;;;1.43;1.33;;;;;;;2.56;100.00;102265.19;5091789;28;20285;-76
2024/01/29 00:48:51;;;;;;;0.83;0.83;;;;;;;2.60;100.00;102274.03;5091406;28;20198;-76
2024/01/29 00:51:18;;;;;;;4.47;1.77;;;;;;;2.62;100.00;102272.47;5091911;28;20286;-76
2024/01/29 00:53:45;;;;;;;1.50;1.40;;;;;;;2.50;100.00;102249.31;5091767;28;20198;-76
2024/01/29 00:56:12;;;;;;;0.90;0.90;;;;;;;2.62;100.00;102270.81;5091077;28;20583;-76
2024/01/29 00:58:39;;;;;;;0.80;0.80;;;;;;;2.62;100.00;102269.91;5090919;28;20615;-76
2024/01/29 01:01:07;;;;;;;0.80;0.80;;;;;;;2.64;100.00;102265.81;5091915;28;20605;-76
2024/01/29 01:03:34;;;;;;;0.80;0.80;;;;;;;2.61;100.00;102263.00;5091199;28;20242;-75
2024/01/29 01:06:01;;;;;;;2.73;1.73;;;;;;;2.54;100.00;102245.34;5091114;28;20194;-75
2024/01/29 01:08:28;;;;;;;0.90;0.90;;;;;;;2.61;100.00;102261.31;5090444;28;20206;-75
2024/01/29 01:10:54;;;;;;;1.30;1.20;;;;;;;2.60;100.00;102261.22;5090883;28;20324;-75
2024/01/29 01:13:21;;;;;;;2.23;1.70;;;;;;;2.55;100.00;102242.00;5089662;28;20652;-75
2024/01/29 01:15:48;;;;;;;1.00;1.00;;;;;;;2.59;100.00;102264.53;5090901;28;20222;-76
2024/01/29 01:18:16;;;;;;;1.00;1.00;;;;;;;2.70;100.00;102268.88;5090833;28;20198;-75
2024/01/29 01:20:43;;;;;;;1.30;1.30;;;;;;;2.75;100.00;102262.44;5090890;28;20208;-75
2024/01/29 01:23:09;;;;;;;1.07;1.07;;;;;;;2.73;100.00;102264.00;5090873;28;20206;-75
2024/01/29 01:25:36;;;;;;;0.60;0.60;;;;;;;2.70;100.00;102243.25;5088802;28;20205;-75
2024/01/29 01:28:03;;;;;;;1.50;1.50;;;;;;;2.66;100.00;102230.97;5090752;28;20209;-75
2024/01/29 01:30:31;;;;;;;1.33;1.23;;;;;;;2.84;100.00;102252.94;5090651;28;20638;-76
2024/01/29 01:32:58;;;;;;;0.93;0.93;;;;;;;3.01;100.00;102268.00;5090887;28;20217;-75
2024/01/29 01:35:26;;;;;;;1.03;1.03;;;;;;;3.05;100.00;102258.91;5090395;28;20573;-75
2024/01/29 01:37:52;;;;;;;1.03;1.03;;;;;;;3.00;100.00;102261.97;5089054;28;20198;-75
2024/01/29 01:40:19;;;;;;;0.70;0.70;;;;;;;2.95;100.00;102239.34;5090881;28;20206;-75
2024/01/29 01:42:47;;;;;;;3.40;1.93;;;;;;;3.12;100.00;102267.19;5090897;28;20667;-75
2024/01/29 01:45:14;;;;;;;0.70;0.70;;;;;;;3.10;100.00;102258.50;5090633;28;20612;-75
2024/01/29 01:47:41;;;;;;;1.37;1.37;;;;;;;3.00;100.00;102248.25;5090573;28;20206;-76
2024/01/29 01:50:10;;;;;;;1.33;1.33;;;;;;;3.08;100.00;102265.16;5090449;28;20195;-76
2024/01/29 01:52:39;;;;;;;2.53;1.73;;;;;;;3.10;100.00;102257.59;5054986;28;20195;-77
2024/01/29 01:55:06;;;;;;;2.73;2.53;;;;;;;2.99;100.00;102254.19;5090178;28;20225;-76
2024/01/29 01:57:33;;;;;;;1.50;1.47;;;;;;;2.92;100.00;102264.72;5089991;28;20558;-76
2024/01/29 02:00:00;;;;;;;1.57;1.47;;;;;;;2.90;100.00;102258.56;5090666;28;20206;-76
2024/01/29 02:02:27;;;;;;;1.00;1.00;;;;;;;2.75;100.00;102247.06;5088332;28;20685;-77
2024/01/29 02:04:54;;;;;;;0.93;0.93;;;;;;;2.80;100.00;102256.03;5089960;28;20206;-77
2024/01/29 02:07:22;;;;;;;1.03;1.03;;;;;;;2.74;100.00;102261.56;5089905;28;20198;-76
2024/01/29 02:09:50;;;;;;;0.97;0.97;;;;;;;2.65;100.00;102259.91;5090504;28;20623;-76
2024/01/29 02:12:17;;;;;;;1.00;1.00;;;;;;;2.62;100.00;102265.69;5089996;28;20195;-75
2024/01/29 02:14:44;;;;;;;0.80;0.80;;;;;;;2.52;100.00;102241.78;5090396;28;20602;-76
2024/01/29 02:17:11;;;;;;;0.70;0.70;;;;;;;2.54;100.00;102259.03;5089939;28;20647;-76
2024/01/29 02:19:38;;;;;;;1.03;1.03;;;;;;;2.56;100.00;102260.06;5087481;28;20631;-76
2024/01/29 02:22:05;;;;;;;1.10;1.10;;;;;;;2.60;100.00;102256.09;5070169;28;20297;-76
2024/01/29 02:24:33;;;;;;;2.73;1.53;;;;;;;2.62;100.00;102264.78;5074673;28;20198;-76
2024/01/29 02:27:00;;;;;;;1.90;1.77;;;;;;;2.58;100.00;102261.09;5090119;28;20210;-76
2024/01/29 02:29:27;;;;;;;1.03;1.03;;;;;;;2.57;100.00;102260.97;5089741;28;20202;-76
2024/01/29 02:31:53;;;;;;;2.83;1.43;;;;;;;2.26;100.00;102225.16;5090040;28;20608;-76
2024/01/29 02:34:20;;;;;;;0.67;0.67;;;;;;;2.44;100.00;102254.84;5089701;28;20198;-76
2024/01/29 02:36:47;;;;;;;0.80;0.80;;;;;;;2.42;100.00;102235.91;5089777;28;20233;-75
2024/01/29 02:39:14;;;;;;;0.90;0.90;;;;;;;2.50;100.00;102260.44;5089984;28;20198;-76
2024/01/29 02:41:42;;;;;;;0.70;0.70;;;;;;;2.59;100.00;102261.97;5090112;28;20198;-76
2024/01/29 02:44:09;;;;;;;1.03;1.03;;;;;;;2.37;100.00;102244.88;5089830;28;20675;-75
2024/01/29 02:46:35;;;;;;;1.00;1.00;;;;;;;1.91;100.00;102155.75;5089782;28;20197;-76
2024/01/29 02:49:02;;;;;;;4.97;1.33;;;;;;;2.47;100.00;102260.22;5089821;28;20198;-76
2024/01/29 02:51:29;;;;;;;0.70;0.70;;;;;;;2.32;100.00;102248.69;5089844;28;20201;-76
2024/01/29 02:53:56;;;;;;;1.60;1.60;;;;;;;2.40;100.00;102268.16;5089724;28;20198;-76
2024/01/29 02:56:22;;;;;;;0.90;0.90;;;;;;;2.26;100.00;102252.41;5089496;28;20291;-76
2024/01/29 02:58:51;;;;;;;0.80;0.80;;;;;;;2.40;100.00;102270.72;5086706;28;20209;-76
2024/01/29 03:01:19;;;;;;;1.10;1.10;;;;;;;2.38;100.00;102274.81;5069391;28;20246;-75
2024/01/29 03:03:45;;;;;;;1.40;1.40;;;;;;;2.32;100.00;102269.19;5069592;28;20238;-75
2024/01/29 03:06:12;;;;;;;0.70;0.70;;;;;;;2.21;100.00;102256.28;5087253;28;20203;-76
2024/01/29 03:08:39;;;;;;;1.10;1.10;;;;;;;2.15;100.00;102256.66;5069458;28;20209;-76
2024/01/29 03:11:06;;;;;;;1.40;1.40;;;;;;;1.87;100.00;102201.41;5069379;28;20230;-74
2024/01/29 03:13:33;;;;;;;1.00;1.00;;;;;;;2.09;100.00;102253.59;5069393;28;20198;-76
2024/01/29 03:16:01;;;;;;;1.20;1.20;;;;;;;2.21;100.00;102266.53;5089594;28;20194;-74
2024/01/29 03:18:28;;;;;;;0.80;0.80;;;;;;;2.12;100.00;102266.63;5089547;28;20198;-75
2024/01/29 03:20:54;;;;;;;1.00;1.00;;;;;;;2.01;100.00;102254.63;5089320;28;20201;-75
2024/01/29 03:23:21;;;;;;;0.90;0.90;;;;;;;2.07;100.00;102265.34;5091026;28;20206;-74
2024/01/29 03:25:48;;;;;;;1.93;1.83;;;;;;;2.04;100.00;102264.19;5093266;28;20209;-74
2024/01/29 03:28:15;;;;;;;1.20;1.20;;;;;;;1.49;100.00;102167.53;5092292;28;20194;-74
2024/01/29 03:30:41;;;;;;;0.77;0.77;;;;;;;2.02;100.00;102271.75;5072752;28;20210;-75
2024/01/29 03:33:09;;;;;;;1.57;1.57;;;;;;;2.07;100.00;102270.47;5080774;28;20259;-75
2024/01/29 03:35:37;;;;;;;0.90;0.90;;;;;;;2.00;100.00;102263.94;5074072;28;20198;-74
2024/01/29 03:38:04;;;;;;;0.90;0.90;;;;;;;2.01;100.00;102269.97;5057526;28;20709;-74
2024/01/29 03:40:31;;;;;;;3.43;1.20;;;;;;;1.97;100.00;102270.47;5092667;28;20198;-74
2024/01/29 03:42:57;;;;;;;0.80;0.80;;;;;;;1.84;100.00;102249.75;5092661;28;20768;-74
2024/01/29 03:45:24;;;;;;;0.80;0.80;;;;;;;1.95;100.00;102272.00;5092627;28;20628;-74
2024/01/29 03:47:51;;;;;;;0.87;0.87;;;;;;;1.95;100.00;102266.91;5057316;28;20206;-75
2024/01/29 03:50:19;;;;;;;1.17;1.17;;;;;;;2.08;100.00;102276.47;5092920;28;20551;-75
2024/01/29 03:52:47;;;;;;;2.20;2.10;;;;;;;2.00;100.00;102275.84;5090808;28;20198;-74
2024/01/29 03:55:14;;;;;;;1.07;1.07;;;;;;;1.95;100.00;102264.34;5092154;28;20611;-75
2024/01/29 03:57:41;;;;;;;1.60;1.50;;;;;;;2.01;100.00;102280.19;5072153;28;20229;-74
2024/01/29 04:00:09;;;;;;;1.00;1.00;;;;;;;2.02;100.00;102283.66;5072680;28;20213;-77
2024/01/29 04:02:35;;;;;;;1.83;1.73;;;;;;;1.13;100.00;102149.97;5072045;28;20441;-74
2024/01/29 04:05:02;;;;;;;1.40;1.40;;;;;;;1.97;100.00;102294.38;5086839;28;20577;-76
2024/01/29 04:07:30;;;;;;;3.93;1.20;;;;;;;1.89;100.00;102295.41;5092443;28;20194;-76
2024/01/29 04:09:57;;;;;;;1.40;1.40;;;;;;;1.62;100.00;102270.03;5092407;28;20198;-75
2024/01/29 04:12:24;;;;;;;1.40;1.30;;;;;;;1.68;100.00;102298.69;5092928;28;20195;-75
2024/01/29 04:14:50;;;;;;;4.10;2.20;;;;;;;1.75;100.00;102290.78;5091100;28;20440;-74
2024/01/29 04:17:17;;;;;;;3.60;1.80;;;;;;;2.11;100.00;102293.00;5091436;28;20467;-76
2024/01/29 04:19:44;;;;;;;1.00;1.00;;;;;;;2.15;100.00;102296.69;5092358;28;20205;-76
2024/01/29 04:22:11;;;;;;;1.00;1.00;;;;;;;2.02;100.00;102299.00;5090772;28;20202;-76
2024/01/29 04:24:39;;;;;;;0.83;0.83;;;;;;;1.81;100.00;102275.06;5085458;28;20297;-72
2024/01/29 04:27:06;;;;;;;0.93;0.93;;;;;;;1.85;100.00;102300.16;5086456;28;20202;-75
2024/01/29 04:29:33;;;;;;;1.50;1.50;;;;;;;1.69;100.00;102289.34;5090956;28;20202;-75
2024/01/29 04:31:59;;;;;;;7.03;1.83;;;;;;;1.63;100.00;102291.41;5075557;28;20699;-74
2024/01/29 04:34:26;;;;;;;1.43;1.43;;;;;;;1.70;100.00;102317.63;5085531;28;20198;-74
2024/01/29 04:36:53;;;;;;;2.80;2.53;;;;;;;1.67;100.00;102319.03;5088727;28;20700;-74
2024/01/29 04:39:20;;;;;;;1.00;1.00;;;;;;;1.63;100.00;102312.75;5091496;28;20639;-75
2024/01/29 04:41:48;;;;;;;1.23;1.23;;;;;;;1.45;100.00;102278.84;5092333;28;20194;-74
2024/01/29 04:44:15;;;;;;;1.03;1.03;;;;;;;1.60;100.00;102315.06;5090482;28;20561;-74
2024/01/29 04:46:42;;;;;;;1.60;1.57;;;;;;;1.59;100.00;102291.91;5093383;28;20667;-77
2024/01/29 04:49:09;;;;;;;0.97;0.97;;;;;;;1.67;100.00;102321.59;5094217;28;20198;-74
2024/01/29 04:51:37;;;;;;;2.87;2.20;;;;;;;1.52;100.00;102312.59;5092141;28;20202;-74
2024/01/29 04:54:04;;;;;;;1.63;1.63;;;;;;;1.44;100.00;102307.72;5052541;28;20198;-72
2024/01/29 04:56:30;;;;;;;2.50;2.23;;;;;;;1.55;100.00;102326.53;5093123;28;20202;-75
2024/01/29 04:58:58;;;;;;;1.63;1.53;;;;;;;1.55;100.00;102325.63;5092558;28;20198;-75
2024/01/29 05:01:25;;;;;;;0.90;0.90;;;;;;;1.27;100.00;102295.13;5056001;28;20198;-74
2024/01/29 05:03:53;;;;;;;1.13;1.00;;;;;;;1.37;100.00;102325.81;5090616;28;20253;-74
2024/01/29 05:06:20;;;;;;;0.80;0.80;;;;;;;1.38;100.00;102330.19;5072176;28;20689;-75
2024/01/29 05:08:47;;;;;;;1.47;1.43;;;;;;;1.41;100.00;102343.22;5091591;28;20259;-75
2024/01/29 05:11:14;;;;;;;0.83;0.83;;;;;;;1.37;100.00;102337.69;5091252;28;20198;-75
2024/01/29 05:13:40;;;;;;;1.87;1.77;;;;;;;1.34;100.00;102337.44;5091056;28;20205;-74
2024/01/29 05:16:11;;;;;;;2.23;1.43;;;;;;;0.81;100.00;102245.88;5091054;28;20195;-75
2024/01/29 05:18:38;;;;;;;0.80;0.80;;;;;;;1.28;100.00;102348.03;5090927;28;20218;-74
2024/01/29 05:21:05;;;;;;;0.63;0.63;;;;;;;1.30;100.00;102354.16;5090788;28;20221;-74
2024/01/29 05:23:32;;;;;;;1.10;1.10;;;;;;;0.45;100.00;102213.78;5072019;28;20190;-76
2024/01/29 05:25:58;;;;;;;2.00;1.93;;;;;;;1.28;100.00;102355.69;5055816;28;20206;-76
2024/01/29 05:28:25;;;;;;;1.30;1.30;;;;;;;1.19;100.00;102329.31;5091612;28;20209;-76
2024/01/29 05:30:52;;;;;;;1.00;1.00;;;;;;;1.33;100.00;102358.63;5072051;28;20198;-74
2024/01/29 05:33:20;;;;;;;1.03;1.03;;;;;;;1.35;100.00;102359.69;5089984;28;20205;-77
2024/01/29 05:35:47;;;;;;;1.27;1.27;;;;;;;1.33;100.00;102363.75;5090687;28;20194;-77
2024/01/29 05:38:14;;;;;;;0.90;0.90;;;;;;;0.90;100.00;102282.44;5090933;28;20283;-77
2024/01/29 05:40:41;;;;;;;2.17;2.17;;;;;;;1.24;100.00;102348.53;5090614;28;20304;-75
2024/01/29 05:43:08;;;;;;;1.10;1.10;;;;;;;1.35;100.00;102369.91;5091432;28;20614;-77
2024/01/29 05:45:35;;;;;;;2.67;2.47;;;;;;;1.28;100.00;102371.03;5085742;28;20211;-76
2024/01/29 05:48:04;;;;;;;1.20;1.20;;;;;;;1.24;100.00;102374.06;5090336;28;20213;-76
2024/01/29 05:50:32;;;;;;;1.77;1.67;;;;;;;1.32;100.00;102372.19;5090940;28;20205;-77
2024/01/29 05:52:58;;;;;;;0.93;0.93;;;;;;;1.11;100.00;102350.72;5092036;28;20230;-75
2024/01/29 05:55:25;;;;;;;0.93;0.93;;;;;;;1.29;100.00;102347.25;5091225;28;20198;-74
2024/01/29 05:57:52;;;;;;;2.80;2.40;;;;;;;1.55;100.00;102381.88;5090191;28;20325;-74
2024/01/29 06:00:20;;;;;;;1.00;1.00;;;;;;;1.58;100.00;102394.91;5090072;28;20198;-73
2024/01/29 06:02:49;;;;;;;1.20;1.20;;;;;;;1.55;100.00;102397.22;5089376;28;20237;-73
2024/01/29 06:05:17;;;;;;;2.20;1.87;;;;;;;1.48;100.00;102386.44;5089933;28;20194;-76
2024/01/29 06:07:45;;;;;;;1.10;1.10;;;;;;;1.67;100.00;102398.28;5090585;28;20206;-74
2024/01/29 06:10:15;;;;;;;2.80;2.30;;;;;;;1.67;100.00;102401.75;5087302;28;20307;-76
2024/01/29 06:12:41;;;;;;;1.50;1.50;;;;;;;1.70;100.00;102403.66;5087026;28;20215;-75
2024/01/29 06:15:09;;;;;;;2.50;2.30;;;;;;;1.71;100.00;102403.78;5089753;28;20197;-80
2024/01/29 06:17:36;;;;;;;4.47;1.87;;;;;;;1.65;100.00;102389.56;5086535;28;20225;-74
2024/01/29 06:20:03;;;;;;;1.40;1.40;;;;;;;1.81;100.00;102418.28;5079578;28;20205;-76
2024/01/29 06:22:30;;;;;;;2.60;2.40;;;;;;;1.78;100.00;102403.59;5052518;28;20294;-74
2024/01/29 06:24:58;;;;;;;6.63;1.87;;;;;;;1.94;100.00;102421.13;5089559;28;20206;-73
2024/01/29 06:27:25;;;;;;;1.17;1.17;;;;;;;1.93;100.00;102421.91;5075418;28;20213;-73
2024/01/29 06:29:52;;;;;;;20.47;1.83;;;;;;;1.99;100.00;102425.00;5090015;28;20206;-79
2024/01/29 06:32:19;;;;;;;1.37;1.37;;;;;;;1.98;100.00;102402.75;5089583;28;20210;-74
2024/01/29 06:34:45;;;;;;;0.90;0.90;;;;;;;2.15;100.00;102428.09;5089327;28;20201;-75
2024/01/29 06:37:12;;;;;;;1.73;1.73;;;;;;;2.17;100.00;102426.59;5089606;28;20229;-74
2024/01/29 06:39:39;;;;;;;2.93;2.80;;;;;;;2.24;100.00;102426.34;5089808;28;20206;-76
2024/01/29 06:42:07;;;;;;;1.10;1.10;;;;;;;2.33;100.00;102429.69;5089951;28;20210;-74
2024/01/29 06:44:34;;;;;;;1.00;1.00;;;;;;;2.30;100.00;102428.53;5089348;28;20229;-77
2024/01/29 06:47:01;;;;;;;0.90;0.90;;;;;;;2.30;100.00;102437.09;5089830;28;20194;-76
2024/01/29 06:49:30;;;;;;;1.10;1.10;;;;;;;2.18;100.00;102413.00;5090000;28;20285;-75
2024/01/29 06:51:57;;;;;;;1.70;1.60;;;;;;;2.27;100.00;102413.81;5089913;28;20618;-76
2024/01/29 06:54:24;;;;;;;1.30;1.27;;;;;;;2.18;100.00;102428.34;5090068;28;20209;-76
2024/01/29 06:56:52;;;;;;;3.20;2.90;;;;;;;2.19;100.00;102427.59;5090750;28;20194;-77
2024/01/29 06:59:20;;;;;;;2.73;2.20;;;;;;;2.37;100.00;102433.41;5094001;28;20232;-77
2024/01/29 07:01:47;;;;;;;0.90;0.90;;;;;;;2.23;100.00;102431.31;5093766;28;20279;-75
2024/01/29 07:04:13;;;;;;;0.70;0.70;;;;;;;2.38;100.00;102437.75;5058111;28;20213;-76
2024/01/29 07:06:40;;;;;;;1.00;1.00;;;;;;;2.31;100.00;102430.31;5093656;28;20205;-75
2024/01/29 07:09:07;;;;;;;1.20;1.17;;;;;;;2.44;100.00;102444.28;5074538;28;20209;-76
2024/01/29 07:11:34;;;;;;;1.37;1.37;;;;;;;2.46;100.00;102453.00;5093664;28;20209;-74
2024/01/29 07:14:01;;;;;;;1.23;1.23;;;;;;;2.54;100.00;102450.19;5093541;28;20195;-77
2024/01/29 07:16:29;;;;;;;1.03;1.03;;;;;;;2.30;100.00;102416.63;5093789;28;20213;-77
2024/01/29 07:18:55;;;;;;;0.70;0.70;;;;;;;2.64;100.00;102452.78;5090569;28;20226;-75
2024/01/29 07:21:22;;;;;;;0.93;0.93;;;;;;;2.76;100.00;102453.78;5082148;28;20284;-76
2024/01/29 07:23:49;;;;;;;0.83;0.83;;;;;;;2.82;100.00;102465.44;5093091;28;20213;-76
2024/01/29 07:26:16;;;;;;;1.67;1.57;;;;;;;2.80;100.00;102460.97;5093362;28;20209;-76
2024/01/29 07:28:42;;;;;;;1.37;1.37;;;;;;;2.83;100.00;102456.09;5093381;28;20205;-76
2024/01/29 07:31:10;;;;;;;0.70;0.70;;;;;;;2.80;100.00;102436.25;5087660;28;20195;-77
2024/01/29 07:33:38;;;;;;;1.00;1.00;;;;;;;2.87;100.00;102433.44;5084428;28;20202;-76
2024/01/29 07:36:05;;;;;;;0.73;0.73;;;;;;;3.11;100.00;102464.41;5093015;28;20346;-75
2024/01/29 07:38:32;;;;;;;0.93;0.93;;;;;;;2.99;100.00;102460.09;5057328;28;20218;-79
2024/01/29 07:40:59;;;;;;;3.33;2.60;;;;;;;2.95;100.00;102472.50;5093242;28;20198;-77
2024/01/29 07:43:26;;;;;;;0.80;0.80;;;;;;;2.91;100.00;102468.78;5092935;28;20649;-77
2024/01/29 07:45:52;;;;;;;4.43;4.23;;;;;;;2.84;100.00;102463.03;5092997;28;20198;-77
2024/01/29 07:48:19;;;;;;;1.67;1.67;;;;;;;2.91;100.00;102466.22;5092805;28;20581;-76
2024/01/29 07:50:47;;;;;;;0.70;0.70;;;;;;;3.21;100.00;102472.97;5092978;28;20217;-78
2024/01/29 07:53:14;;;;;;;0.90;0.90;;;;;;;3.18;100.00;102477.84;5092824;28;20233;-75
2024/01/29 07:55:41;;;;;;;0.67;0.67;;;;;;;3.50;100.00;102475.38;5081767;28;20215;-77
2024/01/29 07:58:08;;;;;;;0.90;0.90;;;;;;;3.74;100.00;102468.78;5089761;28;20214;-75
2024/01/29 08:00:35;;;;;;;0.93;0.93;;;;;;;3.69;100.00;102444.41;5074114;28;20198;-73
2024/01/29 08:03:02;;;;;;;0.60;0.60;;;;;;;4.08;100.00;102483.50;5092754;28;20295;-73
2024/01/29 08:05:29;;;;;;;0.83;0.83;;;;;;;3.61;100.00;102476.22;5084738;28;20202;-74
2024/01/29 08:07:58;;;;;;;1.07;1.07;;;;;;;3.27;100.00;102478.63;5086407;28;20210;-73
2024/01/29 08:10:24;;;;;;;1.00;1.00;;;;;;;2.81;100.00;102471.34;5092346;28;20206;-76
2024/01/29 08:12:51;;;;;;;0.80;0.80;;;;;;;2.87;100.00;102489.78;5092777;28;20700;-77
2024/01/29 08:15:18;;;;;;;4.80;2.00;;;;;;;3.00;100.00;102490.03;5088141;28;20740;-77
2024/01/29 08:17:45;;;;;;;1.00;1.00;;;;;;;3.05;100.00;102489.53;5083456;28;20712;-76
2024/01/29 08:20:12;;;;;;;2.97;2.77;;;;;;;2.97;100.00;102488.88;5079580;28;20690;-76
2024/01/29 08:22:38;;;;;;;0.70;0.70;;;;;;;3.15;100.00;102487.88;5091974;28;20198;-75
2024/01/29 08:25:07;;;;;;;2.07;1.97;;;;;;;3.16;100.00;102489.66;5092306;28;20202;-76
2024/01/29 08:27:34;;;;;;;1.23;1.23;;;;;;;3.04;100.00;102487.72;5042376;28;20263;-77
2024/01/29 08:30:01;;;;;;;1.00;1.00;;;;;;;2.95;100.00;102490.44;5092946;28;20279;-76
2024/01/29 08:32:28;;;;;;;1.60;1.57;;;;;;;3.15;100.00;102487.88;5074262;28;20640;-77
2024/01/29 08:34:54;;;;;;;0.93;0.93;;;;;;;3.00;100.00;102490.03;5092867;28;20251;-76
2024/01/29 08:37:21;;;;;;;1.40;1.40;;;;;;;2.97;100.00;102470.94;5092002;28;20226;-76
2024/01/29 08:39:48;;;;;;;1.30;1.30;;;;;;;3.13;100.00;102483.38;5091655;28;20668;-75
2024/01/29 08:42:16;;;;;;;1.17;1.17;;;;;;;2.97;100.00;102474.41;5091867;28;20725;-76
2024/01/29 08:44:43;;;;;;;5.20;2.10;;;;;;;3.15;100.00;102486.97;5091826;28;20210;-75
2024/01/29 08:47:10;;;;;;;2.13;2.13;;;;;;;3.37;100.00;102496.56;5091509;28;20205;-75
2024/01/29 08:49:36;;;;;;;1.13;1.13;;;;;;;3.34;100.00;102500.53;5091816;28;20202;-76
2024/01/29 08:52:03;;;;;;;3.33;2.23;;;;;;;3.55;100.00;102499.72;5056211;28;20622;-76
2024/01/29 08:54:30;;;;;;;3.00;2.80;;;;;;;3.81;100.00;102486.47;5077411;28;20203;-78
2024/01/29 08:56:57;;;;;;;0.87;0.87;;;;;;;3.89;100.00;102508.47;5091450;28;20205;-76
2024/01/29 08:59:29;;;;;;;1.43;1.40;;;;;;;4.39;100.00;102518.53;5092165;28;20300;-73
2024/01/29 09:01:57;;;;;;;1.00;1.00;;;;;;;4.73;100.00;102518.59;5071166;28;20698;-79
2024/01/29 09:04:23;;;;;;;0.80;0.80;;;;;;;4.78;95.77;102525.00;5084202;28;20201;-76
2024/01/29 09:06:52;;;;;;;1.97;1.83;;;;;;;4.57;93.74;102436.84;5091228;28;20213;-75
2024/01/29 09:09:19;;;;;;;1.00;1.00;;;;;;;5.22;91.15;102520.66;5079892;28;20286;-76
2024/01/29 09:11:45;;;;;;;1.50;1.50;;;;;;;5.43;90.36;102518.00;5088915;28;20208;-76
2024/01/29 09:14:12;;;;;;;2.07;1.87;;;;;;;5.31;91.31;102516.22;5091397;28;20555;-76
2024/01/29 09:16:40;;;;;;;1.27;1.27;;;;;;;5.33;90.98;102520.69;5055384;28;20217;-76
2024/01/29 09:19:07;;;;;;;1.10;1.10;;;;;;;5.22;89.71;102518.06;5076879;28;20323;-76
2024/01/29 09:21:36;;;;;;;1.27;1.27;;;;;;;5.80;100.00;102505.28;5080117;28;20213;-77
2024/01/29 09:24:02;;;;;;;1.00;1.00;;;;;;;5.10;93.64;102488.88;5088043;28;20324;-75
2024/01/29 09:26:29;;;;;;;0.90;0.90;;;;;;;5.23;92.14;102513.06;5091077;28;20206;-75
2024/01/29 09:28:56;;;;;;;1.83;1.80;;;;;;;5.42;90.95;102511.06;5090620;28;20589;-74
2024/01/29 09:31:23;;;;;;;1.10;1.10;;;;;;;5.07;89.86;102509.19;5091227;28;20205;-75
2024/01/29 09:33:51;;;;;;;0.70;0.70;;;;;;;5.08;91.22;102509.31;5090864;28;20263;-75
2024/01/29 09:36:17;;;;;;;3.10;1.97;;;;;;;5.01;91.75;102504.50;5090724;28;20606;-74
2024/01/29 09:38:45;;;;;;;1.33;1.20;;;;;;;5.07;92.64;102504.94;5090475;28;20218;-74
2024/01/29 09:41:12;;;;;;;1.20;1.20;;;;;;;4.94;91.47;102498.00;5090640;28;20229;-75
2024/01/29 09:43:40;;;;;;;0.90;0.90;;;;;;;4.48;93.16;102478.16;5090808;28;20202;-74
2024/01/29 09:46:08;;;;;;;1.20;1.20;;;;;;;4.21;94.69;102465.72;5090646;28;20275;-74
2024/01/29 09:48:37;;;;;;;1.00;1.00;;;;;;;4.34;95.99;102483.91;5081641;28;20206;-75
2024/01/29 09:51:06;;;;;;;0.97;0.97;;;;;;;4.04;97.78;102457.47;5071382;28;20210;-74
2024/01/29 09:53:36;;;;;;;2.20;2.10;;;;;;;4.24;98.40;102481.41;5090485;28;20206;-74
2024/01/29 09:56:04;;;;;;;1.03;1.03;;;;;;;4.34;98.44;102494.16;5090276;28;20632;-74
2024/01/29 09:58:31;;;;;;;1.30;1.30;;;;;;;4.48;97.10;102483.31;5090419;28;20250;-74
2024/01/29 10:01:02;;;;;;;1.50;1.20;;;;;;;3.69;97.51;102377.72;5090191;28;20202;-75
2024/01/29 10:03:31;;;;;;;1.03;1.03;;;;;;;4.29;99.21;102482.63;5090198;28;20230;-74
2024/01/29 10:05:58;;;;;;;1.07;1.07;;;;;;;4.34;99.19;102486.47;5090394;28;20593;-74
2024/01/29 10:08:29;;;;;;;2.37;2.23;;;;;;;4.23;97.76;102433.38;5090196;28;20255;-75
2024/01/29 10:10:56;;;;;;;1.97;1.90;;;;;;;4.50;98.09;102497.16;5054826;28;20198;-74
2024/01/29 10:13:23;;;;;;;1.63;1.63;;;;;;;4.85;96.50;102497.28;5090297;28;20602;-74
2024/01/29 10:15:51;;;;;;;1.40;1.40;;;;;;;4.45;93.03;102357.22;5090194;28;20208;-75
2024/01/29 10:18:18;;;;;;;1.00;1.00;;;;;;;5.08;90.29;102470.75;5043398;28;20241;-74
2024/01/29 10:20:45;;;;;;;1.27;1.27;;;;;;;4.45;92.15;102406.00;5087805;28;20229;-74
2024/01/29 10:23:12;;;;;;;0.90;0.90;;;;;;;5.00;91.32;102446.13;5090446;28;20198;-74
2024/01/29 10:25:40;;;;;;;1.70;1.70;;;;;;;5.20;90.70;102489.69;5089916;28;20205;-72
2024/01/29 10:28:11;;;;;;;3.70;1.33;;;;;;;5.15;91.89;102465.28;5089970;28;20618;-72
2024/01/29 10:30:39;;;;;;;2.17;2.07;;;;;;;5.45;90.75;102472.72;5089925;28;20213;-72
2024/01/29 10:33:06;;;;;;;1.30;1.30;;;;;;;5.44;90.17;102470.03;5093011;28;20206;-73
2024/01/29 10:35:33;;;;;;;1.37;1.37;;;;;;;5.08;91.30;102481.03;5094191;28;20205;-73
2024/01/29 10:38:04;;;;;;;0.93;0.93;;;;;;;5.17;92.40;102468.88;5088885;28;20202;-73
2024/01/29 10:40:32;;;;;;;2.37;2.27;;;;;;;5.24;92.04;102467.66;5086607;28;20222;-72
2024/01/29 10:43:01;;;;;;;1.40;1.30;;;;;;;5.21;92.02;102434.88;5089662;28;20252;-73
2024/01/29 10:45:29;;;;;;;2.83;2.63;;;;;;;5.52;90.10;102460.31;5085139;28;20263;-72
2024/01/29 10:48:07;;;;;;;1.53;1.53;;;;;;;5.76;88.38;102467.22;5094240;28;20230;-76
2024/01/29 10:50:34;;;;;;;3.23;2.30;;;;;;;5.62;87.03;102462.75;5094574;28;20236;-72
2024/01/29 10:53:03;;;;;;;1.30;1.30;;;;;;;5.98;86.27;102457.72;5094305;28;20267;-72
2024/01/29 10:55:31;;;;;;;1.37;1.37;;;;;;;4.47;83.49;102206.66;5058942;28;20206;-72
2024/01/29 10:58:01;;;;;;;1.10;1.10;;;;;;;5.52;82.12;102363.41;5094175;28;20593;-72
2024/01/29 11:00:28;;;;;;;1.37;1.37;;;;;;;6.06;80.40;102460.84;5093989;28;20616;-72
2024/01/29 11:02:56;;;;;;;0.90;0.90;;;;;;;5.92;81.01;102408.38;5094248;28;20236;-72
2024/01/29 11:05:24;;;;;;;1.83;1.73;;;;;;;5.76;81.62;102405.44;5093920;28;20268;-71
2024/01/29 11:07:54;;;;;;;0.93;0.93;;;;;;;5.86;81.20;102423.38;5094297;28;20217;-71
2024/01/29 11:10:23;;;;;;;1.40;1.40;;;;;;;6.30;80.19;102435.13;5093943;28;20203;-72
2024/01/29 11:12:53;;;;;;;1.17;1.17;;;;;;;5.39;83.11;102387.34;5093690;28;20247;-72
2024/01/29 11:15:21;;;;;;;1.33;1.33;;;;;;;5.88;83.18;102457.84;5074818;28;20205;-74
2024/01/29 11:17:48;;;;;;;1.00;1.00;;;;;;;6.10;83.12;102445.69;5093857;28;20198;-72
2024/01/29 11:20:17;;;;;;;0.87;0.87;;;;;;;6.37;81.39;102442.50;5093817;28;20233;-72
2024/01/29 11:22:50;;;;;;;1.27;1.27;;;;;;;6.41;80.60;102448.75;5094014;28;20277;-73
2024/01/29 11:25:18;;;;;;;1.20;1.20;;;;;;;6.37;81.46;102432.19;5093453;28;20194;-72
2024/01/29 11:27:46;;;;;;;0.90;0.90;;;;;;;6.49;81.88;102451.06;5093396;28;20190;-72